Ayrshire, IA

10:18 PM CDT on March 30, 2015 (GMT -0500)
Mallard | | Change Station
CLOSE
Current Station
Personal Weather Station
Location: Mallard, IA
Elevation: 1224 ft
Nearby Weather Stations

Elev 1224 ft 42.94 °N, 94.68 °W | Updated 11 minutes ago

Clear
Clear
58.5 °F
Feels Like 58.5 °F
N
6.0
Wind Variable Wind from SW
Gusts 14.0 mph

Today
High -- | Low -- °F
--% Chance of Precip.
Yesterday
High -- | Low -- °F
Precip. -- in
7:05 AM 7:43 PM
Waxing Gibbous, 84% visible
Pressure 29.91 in
Visibility 10.0 miles
Clouds Clear
Dew Point 37 °F
Humidity 45%
Rainfall 0.00 in
Snow Depth Not available.
UV 0 out of 12
Pollen 9.00 out of 12
Air Quality Not available.
Flu Activity Not available.
METAR KSPW 310253Z AUTO 32009KT 10SM CLR 09/02 A2989 RMK AO2 SLP127 T00890017 53026 TSNO

More Conditions Fewer Conditions

Pressure 29.91 in
Visibility 10.0 miles
Clouds Clear
Dew Point 37 °F
Humidity 45%
Rainfall 0.00 in
Snow Depth Not available.
UV 0 out of 12
Pollen 9.00 out of 12
Air Quality Not available.
Flu Activity Not available.
METAR KSPW 310253Z AUTO 32009KT 10SM CLR 09/02 A2989 RMK AO2 SLP127 T00890017 53026 TSNO

More Conditions Fewer Conditions

10-Day Weather Forecast

Almanac

Astronomy

Mar. 30, 2015 Rise Set
Actual Time
Civil Twilight
Nautical Twilight
Astronomical Twilight
Moon
Length of Visible Light
Length of Day
Tomorrow will be .
, % of the Moon is Illuminated

Today's Extremes

State Highs State Lows

Community

WunderPhotos

Upload Photos

1,809,699 photos uploaded!

WunderBlogs® & News

Nearby

Air Quality

  Air Quality AQ Index Pollutant
Not available.

Snow Depth

Station Depth Elevation

Earthquake Activity

City Distance Mag. Time & Date
Minimum magnitude displayed is 2.5.

Coastal Water Temperatures

Place Temperature

Stations

Nearby Weather Stations

Station Location Temp. Windchill Dew Point Humidity Wind Precip. Elev Updated Type